createdAt,value
2023-04-05T00:00:11.157Z,11.63
2023-04-05T00:02:40.818Z,11.90
2023-04-05T00:05:09.884Z,11.80
2023-04-05T00:07:38.550Z,11.93
2023-04-05T00:10:07.182Z,12.43
2023-04-05T00:12:35.420Z,13.27
2023-04-05T00:15:05.945Z,12.97
2023-04-05T00:17:35.451Z,12.67
2023-04-05T00:20:07.629Z,12.77
2023-04-05T00:22:37.062Z,14.33
2023-04-05T00:25:05.860Z,14.10
2023-04-05T00:27:34.817Z,13.67
2023-04-05T00:30:05.837Z,13.30
2023-04-05T00:32:34.294Z,13.83
2023-04-05T00:35:02.618Z,13.33
2023-04-05T00:37:31.024Z,13.10
2023-04-05T00:39:59.345Z,13.80
2023-04-05T00:42:27.866Z,14.30
2023-04-05T00:44:56.253Z,14.70
2023-04-05T00:47:26.072Z,13.13
2023-04-05T00:49:54.567Z,13.03
2023-04-05T00:52:23.463Z,14.20
2023-04-05T00:54:53.650Z,13.80
2023-04-05T00:57:21.951Z,13.57
2023-04-05T00:59:50.263Z,14.73
2023-04-05T01:02:26.178Z,13.67
2023-04-05T01:05:01.056Z,13.23
2023-04-05T01:07:37.587Z,13.50
2023-04-05T01:10:07.610Z,14.23
2023-04-05T01:12:37.228Z,13.87
2023-04-05T01:15:06.461Z,14.00
2023-04-05T01:17:39.423Z,13.97
2023-04-05T01:20:13.205Z,14.93
2023-04-05T01:23:06.772Z,13.90
2023-04-05T01:26:14.720Z,14.07
2023-04-05T01:29:23.397Z,13.20
2023-04-05T01:32:01.482Z,13.37
2023-04-05T01:34:41.581Z,13.07
2023-04-05T01:37:16.410Z,15.00
2023-04-05T01:39:47.471Z,14.10
2023-04-05T01:42:15.988Z,13.90
2023-04-05T01:44:44.323Z,13.43
2023-04-05T01:47:13.913Z,13.77
2023-04-05T01:49:42.331Z,14.60
2023-04-05T01:52:12.293Z,13.77
2023-04-05T01:54:40.666Z,14.30
2023-04-05T01:57:10.754Z,14.60
2023-04-05T01:59:39.037Z,13.93
2023-04-05T02:02:07.390Z,12.90
2023-04-05T02:04:37.047Z,13.80
2023-04-05T02:07:05.427Z,14.10
2023-04-05T02:09:33.736Z,15.17
2023-04-05T02:12:02.361Z,14.37
2023-04-05T02:14:30.637Z,15.27
2023-04-05T02:16:58.901Z,13.70
2023-04-05T02:19:29.860Z,14.70
2023-04-05T02:21:59.516Z,14.67
2023-04-05T02:24:27.817Z,14.13
2023-04-05T02:26:56.466Z,13.73
2023-04-05T02:29:26.329Z,14.20
2023-04-05T02:31:54.640Z,14.37
2023-04-05T02:34:23.476Z,13.93
2023-04-05T02:36:52.172Z,14.03
2023-04-05T02:39:21.888Z,14.83
2023-04-05T02:41:50.133Z,15.53
2023-04-05T02:44:18.430Z,14.00
2023-04-05T02:46:46.933Z,13.20
2023-04-05T02:49:15.739Z,15.73
2023-04-05T02:51:43.954Z,15.23
2023-04-05T02:54:12.306Z,15.20
2023-04-05T02:56:43.662Z,14.77
2023-04-05T02:59:16.194Z,13.60
2023-04-05T03:01:46.130Z,13.87
2023-04-05T03:04:26.931Z,14.03
2023-04-05T03:07:02.827Z,15.10
2023-04-05T03:09:33.866Z,15.07
2023-04-05T03:12:08.557Z,14.43
2023-04-05T03:14:41.187Z,14.53
2023-04-05T03:17:12.327Z,13.83
2023-04-05T03:19:45.563Z,14.07
2023-04-05T03:22:22.410Z,14.57
2023-04-05T03:24:50.750Z,15.57
2023-04-05T03:27:21.978Z,15.17
2023-04-05T03:30:16.505Z,15.03
2023-04-05T03:32:51.768Z,15.80
2023-04-05T03:35:38.386Z,15.13
2023-04-05T03:38:09.443Z,16.90
2023-04-05T03:40:42.692Z,15.67
2023-04-05T03:43:13.648Z,15.13
2023-04-05T03:45:42.334Z,15.47
2023-04-05T03:48:10.998Z,15.03
2023-04-05T03:50:39.320Z,15.33
2023-04-05T03:53:07.559Z,18.00
2023-04-05T03:55:36.996Z,15.53
2023-04-05T03:58:07.802Z,14.30
2023-04-05T04:00:39.277Z,15.57
2023-04-05T04:03:21.078Z,15.37
2023-04-05T04:05:52.624Z,16.63
2023-04-05T04:08:21.977Z,16.53
2023-04-05T04:10:51.162Z,17.10
2023-04-05T04:13:39.594Z,15.17
2023-04-05T04:16:16.111Z,15.37
2023-04-05T04:18:56.496Z,17.33
2023-04-05T04:21:48.764Z,17.53
2023-04-05T04:24:35.308Z,17.07
2023-04-05T04:27:06.940Z,16.83
2023-04-05T04:30:10.875Z,16.37
2023-04-05T04:33:12.862Z,16.10
2023-04-05T04:35:47.838Z,16.67
2023-04-05T04:38:35.004Z,16.27
2023-04-05T04:41:22.781Z,17.40
2023-04-05T04:44:08.277Z,18.03
2023-04-05T04:46:46.901Z,16.87
2023-04-05T04:49:21.593Z,17.70
2023-04-05T04:51:50.061Z,17.07
2023-04-05T04:54:22.362Z,17.27
2023-04-05T04:56:50.638Z,17.17
2023-04-05T04:59:19.067Z,16.90
2023-04-05T05:01:47.411Z,18.07
2023-04-05T05:04:15.684Z,17.27
2023-04-05T05:06:45.894Z,18.43
2023-04-05T05:09:14.174Z,17.57
2023-04-05T05:11:59.539Z,19.70
2023-04-05T05:14:27.781Z,17.00
2023-04-05T05:16:59.156Z,17.90
2023-04-05T05:19:30.100Z,18.77
2023-04-05T05:22:00.872Z,18.77
2023-04-05T05:24:29.095Z,18.07
2023-04-05T05:26:57.299Z,17.63
2023-04-05T05:29:25.664Z,18.37
2023-04-05T05:31:53.918Z,18.30
2023-04-05T05:34:22.468Z,18.03
2023-04-05T05:36:54.814Z,17.07
2023-04-05T05:39:25.188Z,18.73
2023-04-05T05:41:53.494Z,17.03
2023-04-05T05:44:21.690Z,18.57
2023-04-05T05:46:49.937Z,18.33
2023-04-05T05:49:18.381Z,18.00
2023-04-05T05:51:47.392Z,17.57
2023-04-05T05:54:15.606Z,17.73
2023-04-05T05:56:45.347Z,17.50
2023-04-05T05:59:13.827Z,15.83
2023-04-05T06:01:46.511Z,15.97
2023-04-05T06:04:16.554Z,17.53
2023-04-05T06:06:46.793Z,17.23
2023-04-05T06:09:15.890Z,17.17
2023-04-05T06:11:55.798Z,16.23
2023-04-05T06:14:25.585Z,16.53
2023-04-05T06:16:53.975Z,15.87
2023-04-05T06:19:22.230Z,17.60
2023-04-05T06:21:50.497Z,16.60
2023-04-05T06:24:18.716Z,17.70
2023-04-05T06:26:48.312Z,16.77
2023-04-05T06:29:16.596Z,16.53
2023-04-05T06:31:46.749Z,15.87
2023-04-05T06:34:15.229Z,15.93
2023-04-05T06:36:43.806Z,17.07
2023-04-05T06:39:12.043Z,17.03
2023-04-05T06:41:40.269Z,16.23
2023-04-05T06:44:10.047Z,18.73
2023-04-05T06:46:38.397Z,19.60
2023-04-05T06:49:06.676Z,18.17
2023-04-05T06:51:34.995Z,17.87
2023-04-05T06:54:03.249Z,18.60
2023-04-05T06:56:32.562Z,16.93
2023-04-05T06:59:02.386Z,18.37
2023-04-05T07:01:32.252Z,18.17
2023-04-05T07:04:00.937Z,16.47
2023-04-05T07:06:29.290Z,16.00
2023-04-05T07:08:57.550Z,16.77
2023-04-05T07:11:25.833Z,17.10
2023-04-05T07:13:54.198Z,17.37
2023-04-05T07:16:23.719Z,17.03
2023-04-05T07:18:53.650Z,16.73
2023-04-05T07:21:21.876Z,18.00
2023-04-05T07:23:50.257Z,17.33
2023-04-05T07:26:18.527Z,16.17
2023-04-05T07:28:46.811Z,15.97
2023-04-05T07:31:16.558Z,15.30
2023-04-05T07:33:44.806Z,14.80
2023-04-05T07:36:14.450Z,14.83
2023-04-05T07:38:43.284Z,14.90
2023-04-05T07:41:11.859Z,13.50
2023-04-05T07:43:40.109Z,14.73
2023-04-05T07:46:08.368Z,15.13
2023-04-05T07:48:36.730Z,13.77
2023-04-05T07:51:07.081Z,14.03
2023-04-05T07:53:38.085Z,13.73
2023-04-05T07:56:06.907Z,11.57
2023-04-05T07:58:35.835Z,11.73
2023-04-05T08:01:05.215Z,11.27
2023-04-05T08:03:35.260Z,10.97
2023-04-05T08:06:12.147Z,10.97
2023-04-05T08:08:41.983Z,11.77
2023-04-05T08:11:10.471Z,11.10
2023-04-05T08:13:41.532Z,10.97
2023-04-05T08:16:10.424Z,11.03
2023-04-05T08:18:38.905Z,11.30
2023-04-05T08:21:07.368Z,10.67
2023-04-05T08:23:35.680Z,10.43
2023-04-05T08:26:05.647Z,9.27
2023-04-05T08:28:33.913Z,9.83
2023-04-05T08:31:02.245Z,10.00
2023-04-05T08:33:31.465Z,9.40
2023-04-05T08:36:04.598Z,9.43
2023-04-05T08:38:32.905Z,9.13
2023-04-05T08:41:09.603Z,8.67
2023-04-05T08:43:50.546Z,9.03
2023-04-05T08:46:20.086Z,9.10
2023-04-05T08:48:48.570Z,9.70
2023-04-05T08:51:20.520Z,11.97
2023-04-05T08:53:49.192Z,10.40
2023-04-05T08:56:22.303Z,11.53
2023-04-05T08:58:59.617Z,11.57
2023-04-05T09:01:30.646Z,12.17
2023-04-05T09:04:01.471Z,11.77
2023-04-05T09:06:29.940Z,11.73
2023-04-05T09:08:59.218Z,9.67
2023-04-05T09:11:29.163Z,10.63
2023-04-05T09:13:57.445Z,10.87
2023-04-05T09:16:28.284Z,10.87
2023-04-05T09:18:56.556Z,9.47
2023-04-05T09:21:24.791Z,10.57
2023-04-05T09:23:55.765Z,9.93
2023-04-05T09:26:26.414Z,10.87
2023-04-05T09:29:02.247Z,10.60
2023-04-05T09:31:35.039Z,10.13
2023-04-05T09:34:08.928Z,10.80
2023-04-05T09:36:37.476Z,10.13
2023-04-05T09:39:08.009Z,11.63
2023-04-05T09:41:37.600Z,11.30
2023-04-05T09:44:07.311Z,12.53
2023-04-05T09:46:38.210Z,11.40
2023-04-05T09:49:09.523Z,11.23
2023-04-05T09:51:39.145Z,10.53
2023-04-05T09:54:13.145Z,10.77
2023-04-05T09:56:42.525Z,11.07
2023-04-05T09:59:13.248Z,10.80
2023-04-05T10:01:45.904Z,10.97
2023-04-05T10:04:14.215Z,11.03
2023-04-05T10:06:44.001Z,10.93
2023-04-05T10:09:15.320Z,10.60
2023-04-05T10:11:45.463Z,11.67
2023-04-05T10:14:16.311Z,9.57
2023-04-05T10:16:52.251Z,11.03
2023-04-05T10:19:27.961Z,10.80
2023-04-05T10:22:00.717Z,10.27
2023-04-05T10:24:37.811Z,10.33
2023-04-05T10:27:10.096Z,10.17
2023-04-05T10:29:56.218Z,10.77
2023-04-05T10:32:37.186Z,11.10
2023-04-05T10:35:11.043Z,10.97
2023-04-05T10:37:54.930Z,10.60
2023-04-05T10:40:24.046Z,12.37
2023-04-05T10:42:53.344Z,11.00
2023-04-05T10:45:23.820Z,11.10
2023-04-05T10:47:56.444Z,11.43
2023-04-05T10:50:26.278Z,10.43
2023-04-05T10:52:54.831Z,11.60
2023-04-05T10:55:23.560Z,11.13
2023-04-05T10:57:52.384Z,12.90
2023-04-05T11:00:23.671Z,11.80
2023-04-05T11:02:57.181Z,11.90
2023-04-05T11:05:35.961Z,10.93
2023-04-05T11:08:08.552Z,11.17
2023-04-05T11:10:38.665Z,12.13
2023-04-05T11:13:12.052Z,11.57
2023-04-05T11:15:42.033Z,11.70
2023-04-05T11:18:12.228Z,12.23
2023-04-05T11:20:46.460Z,11.30
2023-04-05T11:23:16.380Z,10.97
2023-04-05T11:25:51.044Z,11.23
2023-04-05T11:28:26.691Z,11.83
2023-04-05T11:30:58.931Z,10.27
2023-04-05T11:33:56.810Z,11.77
2023-04-05T11:36:46.077Z,10.63
2023-04-05T11:39:30.007Z,11.00
2023-04-05T11:42:02.180Z,11.57
2023-04-05T11:44:49.353Z,10.00
2023-04-05T11:47:21.716Z,10.20
2023-04-05T11:49:53.821Z,10.97
2023-04-05T11:52:22.972Z,11.27
2023-04-05T11:54:51.306Z,10.73
2023-04-05T11:57:22.447Z,11.33
2023-04-05T11:59:53.195Z,11.70
2023-04-05T12:02:23.300Z,12.17
2023-04-05T12:04:58.730Z,11.87
2023-04-05T12:07:29.098Z,11.23
2023-04-05T12:10:09.893Z,11.33
2023-04-05T12:12:39.496Z,11.63
2023-04-05T12:15:10.659Z,12.13
2023-04-05T12:17:51.439Z,11.77
2023-04-05T12:20:22.340Z,11.30
2023-04-05T12:22:52.740Z,12.10
2023-04-05T12:25:21.711Z,12.37
2023-04-05T12:27:50.155Z,11.33
2023-04-05T12:30:20.600Z,12.13
2023-04-05T12:32:52.825Z,10.77
2023-04-05T12:35:22.805Z,12.23
2023-04-05T12:37:53.845Z,10.73
2023-04-05T12:40:24.554Z,10.73
2023-04-05T12:42:53.480Z,10.13
2023-04-05T12:45:25.071Z,10.30
2023-04-05T12:47:58.324Z,10.23
2023-04-05T12:50:29.130Z,11.93
2023-04-05T12:52:59.040Z,10.10
2023-04-05T12:55:28.472Z,10.30
2023-04-05T12:58:00.444Z,10.43
2023-04-05T13:00:31.183Z,10.33
2023-04-05T13:03:01.311Z,10.77
2023-04-05T13:05:31.366Z,10.43
2023-04-05T13:08:00.121Z,11.60
2023-04-05T13:10:28.603Z,10.40
2023-04-05T13:12:56.968Z,10.60
2023-04-05T13:15:25.228Z,9.88
2023-04-05T13:17:55.151Z,10.68
2023-04-05T13:20:25.003Z,10.98
2023-04-05T13:22:53.346Z,11.27
2023-04-05T13:25:21.567Z,10.68
2023-04-05T13:27:50.109Z,11.20
2023-04-05T13:30:18.758Z,10.25
2023-04-05T13:32:47.148Z,11.40
2023-04-05T13:35:15.476Z,10.25
2023-04-05T13:37:45.176Z,10.73
2023-04-05T13:40:33.918Z,9.95
2023-04-05T13:43:02.430Z,9.48
2023-04-05T13:45:31.425Z,10.23
2023-04-05T13:47:59.808Z,10.80
2023-04-05T13:50:28.074Z,10.15
2023-04-05T13:52:57.749Z,9.82
2023-04-05T13:55:25.974Z,10.52
2023-04-05T13:57:54.265Z,10.35
2023-04-05T14:00:23.063Z,10.80
2023-04-05T14:02:53.000Z,11.38
2023-04-05T14:05:21.345Z,10.23
2023-04-05T14:07:50.365Z,10.13
2023-04-05T14:10:21.818Z,10.63
2023-04-05T14:12:50.061Z,11.30
2023-04-05T14:15:18.449Z,10.20
2023-04-05T14:17:46.846Z,11.90
2023-04-05T14:20:15.396Z,11.13
2023-04-05T14:22:43.769Z,10.20
2023-04-05T14:25:12.175Z,10.90
2023-04-05T14:27:42.591Z,9.65
2023-04-05T14:30:12.346Z,10.57
2023-04-05T14:32:40.978Z,10.43
2023-04-05T14:35:10.455Z,11.90
2023-04-05T14:37:39.117Z,11.70
2023-04-05T14:40:08.476Z,13.18
2023-04-05T14:42:47.763Z,12.93
2023-04-05T14:45:18.962Z,11.80
2023-04-05T14:47:47.469Z,16.38
2023-04-05T14:50:16.034Z,11.38
2023-04-05T14:52:45.433Z,14.55
2023-04-05T14:55:14.101Z,12.82
2023-04-05T14:57:42.718Z,13.13
2023-04-05T15:00:12.240Z,13.25
2023-04-05T15:02:42.347Z,11.85
2023-04-05T15:05:11.325Z,12.75
2023-04-05T15:07:39.682Z,11.55
2023-04-05T15:10:08.567Z,13.30
2023-04-05T15:12:37.086Z,12.75
2023-04-05T15:15:06.063Z,14.07
2023-04-05T15:17:34.745Z,13.40
2023-04-05T15:20:05.028Z,12.10
2023-04-05T15:22:33.447Z,12.70
2023-04-05T15:25:01.747Z,12.70
2023-04-05T15:27:30.168Z,13.60
2023-04-05T15:29:58.457Z,13.00
2023-04-05T15:32:26.970Z,13.98
2023-04-05T15:34:55.423Z,14.18
2023-04-05T15:37:25.098Z,12.85
2023-04-05T15:39:53.410Z,13.13
2023-04-05T15:42:22.151Z,13.60
2023-04-05T15:44:50.839Z,13.30
2023-04-05T15:47:19.734Z,13.80
2023-04-05T15:49:48.657Z,13.40
2023-04-05T15:52:17.003Z,13.40
2023-04-05T15:54:47.722Z,13.98
2023-04-05T15:57:16.066Z,16.00
2023-04-05T15:59:44.542Z,14.70
2023-04-05T16:02:13.013Z,15.57
2023-04-05T16:04:41.563Z,15.00
2023-04-05T16:07:09.940Z,14.15
2023-04-05T16:09:38.246Z,14.65
2023-04-05T16:12:08.014Z,13.43
2023-04-05T16:14:36.377Z,17.80
2023-04-05T16:17:04.822Z,13.43
2023-04-05T16:19:33.420Z,14.25
2023-04-05T16:22:03.416Z,14.23
2023-04-05T16:24:33.217Z,12.85
2023-04-05T16:27:01.646Z,13.35
2023-04-05T16:29:31.681Z,14.15
2023-04-05T16:32:00.093Z,12.57
2023-04-05T16:34:28.740Z,13.75
2023-04-05T16:36:57.157Z,14.05
2023-04-05T16:39:25.531Z,14.23
2023-04-05T16:41:53.877Z,12.68
2023-04-05T16:44:22.232Z,13.30
2023-04-05T16:46:53.985Z,14.00
2023-04-05T16:49:22.365Z,12.73
2023-04-05T16:51:50.656Z,12.55
2023-04-05T16:54:18.979Z,12.32
2023-04-05T16:56:47.322Z,13.20
2023-04-05T16:59:15.716Z,13.20
2023-04-05T17:01:44.122Z,12.88
2023-04-05T17:04:13.845Z,14.23
2023-04-05T17:06:42.487Z,12.68
2023-04-05T17:09:10.870Z,12.80
2023-04-05T17:11:39.178Z,13.80
2023-04-05T17:14:07.828Z,12.50
2023-04-05T17:16:36.389Z,11.83
2023-04-05T17:19:05.098Z,12.13
2023-04-05T17:21:36.467Z,12.47
2023-04-05T17:24:04.981Z,12.17
2023-04-05T17:26:33.578Z,12.43
2023-04-05T17:29:02.128Z,11.93
2023-04-05T17:31:33.382Z,12.30
2023-04-05T17:34:01.803Z,11.53
2023-04-05T17:36:30.170Z,12.00
2023-04-05T17:38:59.924Z,12.47
2023-04-05T17:41:28.231Z,11.47
2023-04-05T17:43:56.536Z,12.30
2023-04-05T17:46:37.751Z,12.83
2023-04-05T17:49:09.063Z,11.80
2023-04-05T17:51:37.468Z,12.77
2023-04-05T17:54:07.297Z,12.77
2023-04-05T17:56:36.090Z,12.20
2023-04-05T17:59:06.190Z,12.97
2023-04-05T18:01:34.833Z,12.43
2023-04-05T18:04:05.058Z,13.87
2023-04-05T18:06:33.446Z,15.03
2023-04-05T18:09:02.422Z,15.90
2023-04-05T18:11:32.163Z,13.83
2023-04-05T18:14:00.546Z,13.37
2023-04-05T18:16:29.387Z,13.80
2023-04-05T18:18:57.825Z,12.87
2023-04-05T18:21:26.187Z,14.13
2023-04-05T18:23:54.545Z,12.60
2023-04-05T18:26:22.841Z,14.93
2023-04-05T18:28:57.798Z,13.63
2023-04-05T18:31:26.283Z,15.23
2023-04-05T18:33:54.749Z,14.33
2023-04-05T18:36:25.616Z,15.70
2023-04-05T18:38:55.646Z,16.10
2023-04-05T18:41:26.836Z,16.43
2023-04-05T18:43:57.329Z,16.53
2023-04-05T18:46:28.809Z,15.63
2023-04-05T18:48:57.919Z,16.03
2023-04-05T18:51:27.269Z,15.57
2023-04-05T18:53:55.634Z,15.93
2023-04-05T18:56:23.901Z,15.27
2023-04-05T18:58:52.493Z,15.13
2023-04-05T19:01:23.433Z,17.40
2023-04-05T19:03:51.884Z,15.73
2023-04-05T19:06:20.371Z,16.80
2023-04-05T19:08:48.884Z,16.00
2023-04-05T19:11:18.552Z,18.00
2023-04-05T19:13:47.864Z,16.10
2023-04-05T19:16:17.516Z,14.80
2023-04-05T19:18:47.412Z,16.33
2023-04-05T19:21:15.844Z,15.27
2023-04-05T19:23:44.263Z,15.93
2023-04-05T19:26:12.681Z,16.90
2023-04-05T19:28:41.072Z,15.70
2023-04-05T19:31:10.904Z,15.97
2023-04-05T19:33:39.491Z,17.77
2023-04-05T19:36:09.490Z,18.13
2023-04-05T19:38:37.842Z,16.30
2023-04-05T19:41:06.350Z,17.63
2023-04-05T19:43:36.842Z,16.43
2023-04-05T19:46:09.557Z,16.03
2023-04-05T19:48:40.437Z,17.23
2023-04-05T19:51:10.963Z,17.13
2023-04-05T19:53:46.799Z,18.23
2023-04-05T19:56:21.745Z,17.23
2023-04-05T19:58:51.659Z,17.80
2023-04-05T20:01:32.492Z,18.63
2023-04-05T20:04:03.158Z,16.83
2023-04-05T20:06:35.000Z,18.20
2023-04-05T20:09:06.050Z,17.60
2023-04-05T20:11:35.844Z,17.77
2023-04-05T20:14:06.242Z,16.37
2023-04-05T20:16:36.380Z,16.43
2023-04-05T20:19:06.836Z,15.20
2023-04-05T20:21:38.533Z,16.33
2023-04-05T20:24:09.885Z,16.13
2023-04-05T20:26:38.303Z,17.00
2023-04-05T20:29:09.890Z,16.50
2023-04-05T20:31:40.123Z,17.50
2023-04-05T20:34:11.277Z,17.10
2023-04-05T20:36:47.869Z,17.23
2023-04-05T20:39:16.559Z,16.80
2023-04-05T20:41:44.935Z,17.27
2023-04-05T20:44:13.335Z,15.33
2023-04-05T20:46:42.070Z,16.87
2023-04-05T20:49:11.758Z,15.53
2023-04-05T20:51:42.827Z,16.70
2023-04-05T20:54:11.573Z,17.63
2023-04-05T20:56:40.176Z,15.63
2023-04-05T20:59:08.876Z,17.03
2023-04-05T21:01:38.320Z,16.03
2023-04-05T21:04:07.279Z,16.43
2023-04-05T21:06:36.957Z,16.03
2023-04-05T21:09:06.981Z,17.57
2023-04-05T21:11:35.646Z,17.73
2023-04-05T21:14:03.997Z,15.77
2023-04-05T21:16:32.381Z,16.67
2023-04-05T21:19:00.807Z,16.90
2023-04-05T21:21:29.174Z,17.83
2023-04-05T21:23:57.492Z,17.07
2023-04-05T21:26:27.182Z,17.17
2023-04-05T21:28:55.552Z,16.87
2023-04-05T21:31:23.980Z,17.97
2023-04-05T21:33:52.624Z,17.80
2023-04-05T21:36:20.964Z,18.07
2023-04-05T21:38:49.345Z,19.60
2023-04-05T21:41:17.646Z,18.57
2023-04-05T21:43:47.338Z,19.30
2023-04-05T21:46:15.729Z,18.10
2023-04-05T21:48:44.103Z,17.40
2023-04-05T21:51:12.433Z,19.10
2023-04-05T21:53:40.733Z,18.67
2023-04-05T21:56:09.095Z,18.77
2023-04-05T21:58:37.434Z,18.87
2023-04-05T22:01:07.242Z,17.50
2023-04-05T22:03:35.664Z,17.70
2023-04-05T22:06:04.098Z,17.27
2023-04-05T22:08:34.220Z,18.60
2023-04-05T22:11:02.738Z,17.20
2023-04-05T22:13:31.166Z,16.87
2023-04-05T22:15:59.564Z,16.97
2023-04-05T22:18:29.375Z,17.03
2023-04-05T22:20:57.774Z,17.53
2023-04-05T22:23:26.392Z,16.23
2023-04-05T22:25:54.784Z,16.53
2023-04-05T22:28:23.305Z,17.63
2023-04-05T22:30:51.793Z,16.43
2023-04-05T22:33:20.114Z,17.37
2023-04-05T22:35:49.817Z,16.87
2023-04-05T22:38:18.296Z,17.07
2023-04-05T22:40:46.649Z,16.20
2023-04-05T22:43:14.953Z,16.83
2023-04-05T22:45:43.305Z,16.23
2023-04-05T22:48:11.781Z,15.80
2023-04-05T22:50:40.124Z,17.33
2023-04-05T22:53:09.824Z,17.03
2023-04-05T22:55:39.928Z,16.80
2023-04-05T22:58:08.626Z,15.70
2023-04-05T23:00:37.470Z,15.63
2023-04-05T23:03:06.137Z,15.87
2023-04-05T23:05:36.714Z,15.40
2023-04-05T23:08:05.416Z,15.30
2023-04-05T23:10:35.134Z,15.53
2023-04-05T23:13:03.496Z,15.40
2023-04-05T23:15:32.056Z,15.97
2023-04-05T23:18:00.440Z,16.20
2023-04-05T23:20:28.861Z,16.10
2023-04-05T23:22:57.477Z,15.60
2023-04-05T23:25:25.921Z,16.47
2023-04-05T23:27:55.678Z,15.90
2023-04-05T23:30:24.036Z,16.17
2023-04-05T23:32:52.397Z,16.37
2023-04-05T23:35:21.266Z,15.63
2023-04-05T23:37:50.017Z,16.67
2023-04-05T23:40:18.438Z,16.00
2023-04-05T23:42:46.768Z,16.20
2023-04-05T23:45:16.730Z,14.60
2023-04-05T23:47:45.145Z,16.93
2023-04-05T23:50:13.502Z,14.80
2023-04-05T23:52:41.920Z,15.60
2023-04-05T23:55:10.720Z,14.73
2023-04-05T23:57:39.058Z,15.07
